createdAt,value
2022-09-30T00:04:37.032Z,12.97
2022-09-30T00:09:38.760Z,12.77
2022-09-30T00:14:40.404Z,12.50
2022-09-30T00:19:42.437Z,12.45
2022-09-30T00:24:44.018Z,12.53
2022-09-30T00:29:45.773Z,12.29
2022-09-30T00:34:47.390Z,12.42
2022-09-30T00:39:49.079Z,12.63
2022-09-30T00:44:54.383Z,12.77
2022-09-30T00:49:59.892Z,12.83
2022-09-30T00:55:05.901Z,12.89
2022-09-30T01:00:08.265Z,12.95
2022-09-30T01:05:11.732Z,12.87
2022-09-30T01:10:13.428Z,12.88
2022-09-30T01:15:15.340Z,12.96
2022-09-30T01:20:27.527Z,13.03
2022-09-30T01:25:55.018Z,13.06
2022-09-30T01:31:24.843Z,12.93
2022-09-30T01:36:46.712Z,12.97
2022-09-30T01:41:54.659Z,12.98
2022-09-30T01:47:08.885Z,13.00
2022-09-30T01:52:23.868Z,13.05
2022-09-30T01:57:31.905Z,13.04
2022-09-30T02:02:41.228Z,12.93
2022-09-30T02:07:49.920Z,12.84
2022-09-30T02:13:03.399Z,12.71
2022-09-30T02:18:22.492Z,12.75
2022-09-30T02:23:29.085Z,12.78
2022-09-30T02:28:30.928Z,12.84
2022-09-30T02:33:38.298Z,12.96
2022-09-30T02:38:46.304Z,12.93
2022-09-30T02:43:49.297Z,12.90
2022-09-30T02:49:08.566Z,12.97
2022-09-30T02:54:15.829Z,13.03
2022-09-30T02:59:18.049Z,12.97
2022-09-30T03:04:24.800Z,12.90
2022-09-30T03:09:27.303Z,13.01
2022-09-30T03:14:54.202Z,12.95
2022-09-30T03:20:07.824Z,12.98
2022-09-30T03:25:27.404Z,13.00
2022-09-30T03:30:32.624Z,13.02
2022-09-30T03:35:43.398Z,13.02
2022-09-30T03:40:57.861Z,13.06
2022-09-30T03:46:27.020Z,13.00
2022-09-30T03:51:30.049Z,13.00
2022-09-30T03:56:33.465Z,13.00
2022-09-30T04:01:35.145Z,13.00
2022-09-30T04:06:37.262Z,12.98
2022-09-30T04:11:38.972Z,12.99
2022-09-30T04:16:40.682Z,12.95
2022-09-30T04:21:42.463Z,12.96
2022-09-30T04:26:44.086Z,12.96
2022-09-30T04:31:45.837Z,12.95
2022-09-30T04:36:47.503Z,12.91
2022-09-30T04:41:49.075Z,12.88
2022-09-30T04:46:51.273Z,12.87
2022-09-30T04:51:52.846Z,12.86
2022-09-30T04:56:54.417Z,12.83
2022-09-30T05:01:56.045Z,12.83
2022-09-30T05:06:57.808Z,12.79
2022-09-30T05:11:59.437Z,12.68
2022-09-30T05:17:02.160Z,12.71
2022-09-30T05:22:03.737Z,12.73
2022-09-30T05:27:05.521Z,12.69
2022-09-30T05:32:08.009Z,12.57
2022-09-30T05:37:09.685Z,12.47
2022-09-30T05:42:13.992Z,12.45
2022-09-30T05:47:15.874Z,12.36
2022-09-30T05:52:17.448Z,12.36
2022-09-30T05:57:19.080Z,12.37
2022-09-30T06:02:21.296Z,12.41
2022-09-30T06:07:23.328Z,12.46
2022-09-30T06:12:28.771Z,12.47
2022-09-30T06:17:30.497Z,12.51
2022-09-30T06:22:36.173Z,12.51
2022-09-30T06:27:38.309Z,12.49
2022-09-30T06:32:40.394Z,12.50
2022-09-30T06:37:42.088Z,12.54
2022-09-30T06:42:43.887Z,12.53
2022-09-30T06:47:57.857Z,12.57
2022-09-30T06:53:02.952Z,12.61
2022-09-30T06:58:13.776Z,12.59
2022-09-30T07:03:26.540Z,12.58
2022-09-30T07:08:31.574Z,12.62
2022-09-30T07:13:33.415Z,12.62
2022-09-30T07:18:35.087Z,12.62
2022-09-30T07:23:36.867Z,12.62
2022-09-30T07:28:39.550Z,12.64
2022-09-30T07:33:41.929Z,12.63
2022-09-30T07:38:43.614Z,12.68
2022-09-30T07:43:46.675Z,12.73
2022-09-30T07:48:51.789Z,12.72
2022-09-30T07:53:56.375Z,12.77
2022-09-30T07:59:01.097Z,12.80
2022-09-30T08:04:06.455Z,12.84
2022-09-30T08:09:09.022Z,12.92
2022-09-30T08:14:19.567Z,12.99
2022-09-30T08:19:23.368Z,13.03
2022-09-30T08:24:26.664Z,13.04
2022-09-30T08:29:53.876Z,13.06
2022-09-30T08:34:50.369Z,13.01
2022-09-30T08:39:51.936Z,12.97
2022-09-30T08:45:00.612Z,12.96
2022-09-30T08:50:17.453Z,12.97
2022-09-30T08:55:24.123Z,13.10
2022-09-30T09:00:26.186Z,13.23
2022-09-30T09:05:49.972Z,13.34
2022-09-30T09:11:41.183Z,13.42
2022-09-30T09:17:15.403Z,13.47
2022-09-30T09:22:21.225Z,13.58
2022-09-30T09:27:32.786Z,13.74
2022-09-30T09:32:35.776Z,13.82
2022-09-30T09:38:09.477Z,13.93
2022-09-30T09:43:23.787Z,13.98
2022-09-30T09:48:29.203Z,14.07
2022-09-30T09:53:33.789Z,14.12
2022-09-30T09:58:35.469Z,14.12
2022-09-30T10:03:38.247Z,14.14
2022-09-30T10:08:54.057Z,14.02
2022-09-30T10:14:00.681Z,14.06
2022-09-30T10:19:19.908Z,14.07
2022-09-30T10:24:31.547Z,14.13
2022-09-30T10:29:35.555Z,14.20
2022-09-30T10:34:40.988Z,14.25
2022-09-30T10:39:44.686Z,14.31
2022-09-30T10:44:51.730Z,14.34
2022-09-30T10:50:11.522Z,14.43
2022-09-30T10:55:19.181Z,14.48
2022-09-30T11:00:26.064Z,14.67
2022-09-30T11:05:31.687Z,14.72
2022-09-30T11:11:11.365Z,14.84
2022-09-30T11:16:30.097Z,14.96
2022-09-30T11:21:42.424Z,14.89
2022-09-30T11:27:14.633Z,14.89
2022-09-30T11:32:40.856Z,14.99
2022-09-30T11:37:51.492Z,15.16
2022-09-30T11:42:57.028Z,15.24
2022-09-30T11:48:16.887Z,15.41
2022-09-30T11:53:24.550Z,15.61
2022-09-30T11:58:41.362Z,15.68
2022-09-30T12:03:55.035Z,15.84
2022-09-30T12:09:03.954Z,15.78
2022-09-30T12:14:16.166Z,15.80
2022-09-30T12:19:29.052Z,15.79
2022-09-30T12:24:47.667Z,15.82
2022-09-30T12:30:15.210Z,15.96
2022-09-30T12:35:54.359Z,15.97
2022-09-30T12:41:02.612Z,15.97
2022-09-30T12:46:04.557Z,15.94
2022-09-30T12:51:07.829Z,15.96
2022-09-30T12:56:13.025Z,15.96
2022-09-30T13:01:16.749Z,16.12
2022-09-30T13:06:21.283Z,16.20
2022-09-30T13:11:36.306Z,16.22
2022-09-30T13:17:10.237Z,16.45
2022-09-30T13:22:20.884Z,16.52
2022-09-30T13:27:37.485Z,16.52
2022-09-30T13:32:41.204Z,16.63
2022-09-30T13:37:42.778Z,16.71
2022-09-30T13:42:51.496Z,16.81
2022-09-30T13:48:12.014Z,16.90
2022-09-30T13:53:21.000Z,16.87
2022-09-30T13:58:34.922Z,16.64
2022-09-30T14:04:17.201Z,16.59
2022-09-30T14:09:19.054Z,16.67
2022-09-30T14:14:39.392Z,16.63
2022-09-30T14:19:58.362Z,16.43
2022-09-30T14:25:01.163Z,16.54
2022-09-30T14:30:11.459Z,16.66
2022-09-30T14:35:23.113Z,16.56
2022-09-30T14:40:30.722Z,16.64
2022-09-30T14:45:35.670Z,16.31
2022-09-30T14:50:46.510Z,16.33
2022-09-30T14:55:49.433Z,16.29
2022-09-30T15:01:00.709Z,16.28
2022-09-30T15:06:02.679Z,16.33
2022-09-30T15:11:04.399Z,16.35
2022-09-30T15:16:22.456Z,16.31
2022-09-30T15:21:27.294Z,16.22
2022-09-30T15:26:29.722Z,16.20
2022-09-30T15:31:32.527Z,16.20
2022-09-30T15:36:37.357Z,16.18
2022-09-30T15:41:41.429Z,16.15
2022-09-30T15:47:02.356Z,15.95
2022-09-30T15:52:40.076Z,15.97
2022-09-30T15:57:49.882Z,15.93
2022-09-30T16:02:52.806Z,15.88
2022-09-30T16:07:54.488Z,15.84
2022-09-30T16:12:56.115Z,15.85
2022-09-30T16:17:57.977Z,15.83
2022-09-30T16:23:02.453Z,15.81
2022-09-30T16:28:12.341Z,15.77
2022-09-30T16:33:15.395Z,15.69
2022-09-30T16:38:18.259Z,15.62
2022-09-30T16:43:19.885Z,15.54
2022-09-30T16:48:21.561Z,15.45
2022-09-30T16:53:23.344Z,15.39
2022-09-30T16:58:25.000Z,15.39
2022-09-30T17:03:27.092Z,15.33
2022-09-30T17:08:28.834Z,15.24
2022-09-30T17:13:30.525Z,15.27
2022-09-30T17:18:32.430Z,15.25
2022-09-30T17:23:34.356Z,15.24
2022-09-30T17:28:36.545Z,15.19
2022-09-30T17:33:40.028Z,15.15
2022-09-30T17:38:41.777Z,15.05
2022-09-30T17:43:45.529Z,14.83
2022-09-30T17:48:47.369Z,14.89
2022-09-30T17:53:49.285Z,14.84
2022-09-30T17:58:51.210Z,14.79
2022-09-30T18:03:53.565Z,14.80
2022-09-30T18:08:55.972Z,14.80
2022-09-30T18:13:59.655Z,14.79
2022-09-30T18:19:03.348Z,14.77
2022-09-30T18:24:06.509Z,14.66
2022-09-30T18:29:08.064Z,14.59
2022-09-30T18:34:13.133Z,14.59
2022-09-30T18:39:15.414Z,14.51
2022-09-30T18:44:17.101Z,14.45
2022-09-30T18:49:18.722Z,14.43
2022-09-30T18:54:20.907Z,14.47
2022-09-30T18:59:24.018Z,14.52
2022-09-30T19:04:25.965Z,14.46
2022-09-30T19:09:28.406Z,14.50
2022-09-30T19:14:30.730Z,14.50
2022-09-30T19:19:36.068Z,14.48
2022-09-30T19:24:37.968Z,14.43
2022-09-30T19:29:40.551Z,14.38
2022-09-30T19:34:42.800Z,14.36
2022-09-30T19:39:46.232Z,14.35
2022-09-30T19:44:48.117Z,14.26
2022-09-30T19:49:49.721Z,14.27
2022-09-30T19:54:52.234Z,14.21
2022-09-30T19:59:53.841Z,14.13
2022-09-30T20:04:55.504Z,14.11
2022-09-30T20:09:57.210Z,14.13
2022-09-30T20:15:17.372Z,14.16
2022-09-30T20:20:38.436Z,14.14
2022-09-30T20:25:41.688Z,14.11
2022-09-30T20:30:45.537Z,14.06
2022-09-30T20:35:48.100Z,13.99
2022-09-30T20:40:58.626Z,14.00
2022-09-30T20:46:02.424Z,13.99
2022-09-30T20:51:10.016Z,13.88
2022-09-30T20:56:15.181Z,13.82
2022-09-30T21:01:19.956Z,13.71
2022-09-30T21:06:26.901Z,13.67
2022-09-30T21:11:28.537Z,13.68
2022-09-30T21:16:31.064Z,13.64
2022-09-30T21:21:33.150Z,13.61
2022-09-30T21:26:35.585Z,13.48
2022-09-30T21:31:38.147Z,13.36
2022-09-30T21:36:40.802Z,13.37
2022-09-30T21:41:44.713Z,13.37
2022-09-30T21:46:48.665Z,13.23
2022-09-30T21:51:53.039Z,13.04
2022-09-30T21:56:54.578Z,12.97
2022-09-30T22:01:56.530Z,12.96
2022-09-30T22:06:58.242Z,12.82
2022-09-30T22:12:08.700Z,12.84
2022-09-30T22:17:10.420Z,12.73
2022-09-30T22:22:12.396Z,12.84
2022-09-30T22:27:14.187Z,12.77
2022-09-30T22:32:15.796Z,12.92
2022-09-30T22:37:36.006Z,12.92
2022-09-30T22:42:37.830Z,13.01
2022-09-30T22:47:39.417Z,12.88
2022-09-30T22:52:41.052Z,13.01
2022-09-30T22:57:43.589Z,12.85
2022-09-30T23:02:45.221Z,12.80
2022-09-30T23:07:47.053Z,12.93
2022-09-30T23:12:51.392Z,12.98
2022-09-30T23:17:53.184Z,12.73
2022-09-30T23:22:54.921Z,12.73
2022-09-30T23:27:56.885Z,12.77
2022-09-30T23:32:58.580Z,12.92
2022-09-30T23:38:00.320Z,12.96
2022-09-30T23:43:02.063Z,12.99
2022-09-30T23:48:04.266Z,12.92
2022-09-30T23:53:06.203Z,12.95
2022-09-30T23:58:08.429Z,13.02
